Time;durP1;ratioP1;P1;durP2;ratioP2;P2;SDS_P1;SDS_P2;PMS_P1;PMS_P2;Temp;Humidity;BMP_temperature;BMP_pressure;BME280_temperature;BME280_humidity;BME280_pressure;Samples;Min_cycle;Max_cycle;Signal;HPM_P1;HPM_P2
2024/01/12 00:02:01;;;;;;;37.23;15.33;;;;;;;;;;5097832;28;20022;-64
2024/01/12 00:04:27;;;;;;;38.90;16.20;;;;;;;;;;5095606;28;20284;-63
2024/01/12 00:06:52;;;;;;;36.40;16.07;;;;;;;;;;5097103;28;20448;-63
2024/01/12 00:09:18;;;;;;;39.00;15.98;;;;;;;;;;5097299;28;20286;-63
2024/01/12 00:11:43;;;;;;;38.53;17.35;;;;;;;;;;5092262;28;20104;-61
2024/01/12 00:14:08;;;;;;;39.63;16.77;;;;;;;;;;5095149;28;20062;-62
2024/01/12 00:16:33;;;;;;;40.25;16.35;;;;;;;;;;5096857;28;20016;-62
2024/01/12 00:18:59;;;;;;;37.40;16.13;;;;;;;;;;5095783;28;20434;-63
2024/01/12 00:21:24;;;;;;;38.15;16.35;;;;;;;;;;5094497;28;20341;-63
2024/01/12 00:23:49;;;;;;;38.67;16.07;;;;;;;;;;5096043;28;20120;-63
2024/01/12 00:26:14;;;;;;;39.60;16.95;;;;;;;;;;5096730;28;20273;-63
2024/01/12 00:28:40;;;;;;;37.83;16.33;;;;;;;;;;5094698;28;20102;-63
2024/01/12 00:31:05;;;;;;;40.23;16.43;;;;;;;;;;5097072;28;20032;-63
2024/01/12 00:33:30;;;;;;;41.03;17.03;;;;;;;;;;5096275;28;20599;-62
2024/01/12 00:35:55;;;;;;;40.50;16.27;;;;;;;;;;5099968;28;20337;-63
2024/01/12 00:38:20;;;;;;;39.00;16.90;;;;;;;;;;5095113;28;20270;-63
2024/01/12 00:40:45;;;;;;;38.37;15.77;;;;;;;;;;5097269;28;20320;-63
2024/01/12 00:43:11;;;;;;;38.80;14.98;;;;;;;;;;5095269;28;20263;-63
2024/01/12 00:45:36;;;;;;;41.63;16.40;;;;;;;;;;5099313;28;20044;-62
2024/01/12 00:48:01;;;;;;;37.47;15.77;;;;;;;;;;5099506;28;20028;-62
2024/01/12 00:50:26;;;;;;;36.47;15.82;;;;;;;;;;5092310;28;20344;-62
2024/01/12 00:52:51;;;;;;;41.60;15.77;;;;;;;;;;5096926;28;20035;-62
2024/01/12 00:55:17;;;;;;;40.00;16.65;;;;;;;;;;5097053;28;20278;-63
2024/01/12 00:57:42;;;;;;;38.40;17.17;;;;;;;;;;5097249;28;20030;-63
2024/01/12 01:00:09;;;;;;;40.95;17.17;;;;;;;;;;5095202;28;20462;-63
2024/01/12 01:02:34;;;;;;;39.28;16.80;;;;;;;;;;5093647;28;20783;-62
2024/01/12 01:04:59;;;;;;;41.33;16.80;;;;;;;;;;5098907;28;20127;-62
2024/01/12 01:07:25;;;;;;;39.45;16.02;;;;;;;;;;5099299;28;20664;-62
2024/01/12 01:09:50;;;;;;;40.90;18.67;;;;;;;;;;5098881;28;20046;-63
2024/01/12 01:12:15;;;;;;;40.37;17.70;;;;;;;;;;5100853;28;20111;-63
2024/01/12 01:14:40;;;;;;;41.47;17.45;;;;;;;;;;5099301;28;20352;-63
2024/01/12 01:17:05;;;;;;;38.70;16.33;;;;;;;;;;5096655;28;20085;-62
2024/01/12 01:19:30;;;;;;;41.47;18.33;;;;;;;;;;5098756;28;20470;-61
2024/01/12 01:21:56;;;;;;;37.83;16.60;;;;;;;;;;5102758;28;20661;-63
2024/01/12 01:24:21;;;;;;;37.53;16.15;;;;;;;;;;5097759;28;20443;-63
2024/01/12 01:26:46;;;;;;;38.85;15.98;;;;;;;;;;5099291;28;20024;-62
2024/01/12 01:29:11;;;;;;;43.00;16.60;;;;;;;;;;5099003;28;20472;-62
2024/01/12 01:31:37;;;;;;;41.47;17.85;;;;;;;;;;5099513;28;20261;-62
2024/01/12 01:34:02;;;;;;;40.33;16.88;;;;;;;;;;5099953;28;20107;-62
2024/01/12 01:36:27;;;;;;;41.15;17.25;;;;;;;;;;5098432;28;20054;-62
2024/01/12 01:38:52;;;;;;;39.63;17.23;;;;;;;;;;5098016;28;20020;-62
2024/01/12 01:41:17;;;;;;;39.40;17.38;;;;;;;;;;5099194;28;20607;-62
2024/01/12 01:43:43;;;;;;;39.53;17.00;;;;;;;;;;5101492;28;20395;-63
2024/01/12 01:46:08;;;;;;;37.50;16.52;;;;;;;;;;5097878;28;20315;-63
2024/01/12 01:48:33;;;;;;;39.03;17.20;;;;;;;;;;5098590;28;20058;-63
2024/01/12 01:50:59;;;;;;;39.63;18.02;;;;;;;;;;5097568;28;20490;-63
2024/01/12 01:53:24;;;;;;;43.33;17.77;;;;;;;;;;5097591;28;20043;-63
2024/01/12 01:55:49;;;;;;;40.05;17.85;;;;;;;;;;5098471;28;20111;-62
2024/01/12 01:58:15;;;;;;;42.15;18.23;;;;;;;;;;5099216;28;20309;-62
2024/01/12 02:00:41;;;;;;;42.58;16.45;;;;;;;;;;5095668;28;20020;-63
2024/01/12 02:03:06;;;;;;;43.03;18.38;;;;;;;;;;5098371;28;20019;-63
2024/01/12 02:05:34;;;;;;;39.75;16.80;;;;;;;;;;5096861;28;20034;-63
2024/01/12 02:07:59;;;;;;;41.30;17.48;;;;;;;;;;5096802;28;20039;-62
2024/01/12 02:10:25;;;;;;;39.10;16.80;;;;;;;;;;5098400;28;20027;-62
2024/01/12 02:12:50;;;;;;;38.92;16.77;;;;;;;;;;5099464;28;20364;-62
2024/01/12 02:15:15;;;;;;;39.27;17.13;;;;;;;;;;5095975;28;20028;-62
2024/01/12 02:17:41;;;;;;;39.45;18.00;;;;;;;;;;5095587;28;20304;-62
2024/01/12 02:20:06;;;;;;;39.30;16.17;;;;;;;;;;5096298;28;20683;-62
2024/01/12 02:22:31;;;;;;;37.22;17.25;;;;;;;;;;5098391;28;20435;-62
2024/01/12 02:24:57;;;;;;;41.35;17.75;;;;;;;;;;5096240;28;20020;-63
2024/01/12 02:27:22;;;;;;;38.05;15.48;;;;;;;;;;5098868;28;20511;-62
2024/01/12 02:29:49;;;;;;;38.05;16.98;;;;;;;;;;5098025;28;20028;-63
2024/01/12 02:32:14;;;;;;;42.20;17.10;;;;;;;;;;5099732;28;20476;-62
2024/01/12 02:34:39;;;;;;;42.03;17.27;;;;;;;;;;5097044;28;20023;-63
2024/01/12 02:37:04;;;;;;;39.50;17.23;;;;;;;;;;5098419;28;20263;-61
2024/01/12 02:39:29;;;;;;;42.27;18.27;;;;;;;;;;5098384;28;20766;-62
2024/01/12 02:41:57;;;;;;;38.07;16.87;;;;;;;;;;5098429;28;20249;-62
2024/01/12 02:44:23;;;;;;;42.03;17.58;;;;;;;;;;5096411;28;20839;-62
2024/01/12 02:46:48;;;;;;;39.05;17.02;;;;;;;;;;5095464;28;20024;-62
2024/01/12 02:49:13;;;;;;;39.37;18.13;;;;;;;;;;5099973;28;20023;-62
2024/01/12 02:51:38;;;;;;;39.55;16.95;;;;;;;;;;5094286;28;20266;-60
2024/01/12 02:54:04;;;;;;;40.87;17.77;;;;;;;;;;5097625;28;20026;-61
2024/01/12 02:56:29;;;;;;;41.67;17.27;;;;;;;;;;5095990;27;20383;-61
2024/01/12 02:58:54;;;;;;;41.17;18.48;;;;;;;;;;5096207;28;20023;-61
2024/01/12 03:01:20;;;;;;;41.17;17.70;;;;;;;;;;5095629;28;20042;-62
2024/01/12 03:03:45;;;;;;;39.25;16.95;;;;;;;;;;5095919;28;20357;-63
2024/01/12 03:06:10;;;;;;;37.53;16.55;;;;;;;;;;5094777;28;20027;-62
2024/01/12 03:08:35;;;;;;;37.40;15.73;;;;;;;;;;5097036;28;20031;-62
2024/01/12 03:11:01;;;;;;;38.70;16.20;;;;;;;;;;5096889;28;20019;-62
2024/01/12 03:13:26;;;;;;;41.80;17.17;;;;;;;;;;5096145;28;20376;-63
2024/01/12 03:15:52;;;;;;;39.07;16.93;;;;;;;;;;5096185;28;20360;-62
2024/01/12 03:18:17;;;;;;;39.67;17.85;;;;;;;;;;5097671;28;20265;-62
2024/01/12 03:20:42;;;;;;;37.28;17.58;;;;;;;;;;5098652;28;20024;-62
2024/01/12 03:23:07;;;;;;;40.10;18.17;;;;;;;;;;5097154;28;20070;-62
2024/01/12 03:25:32;;;;;;;41.63;18.17;;;;;;;;;;5097478;28;20342;-62
2024/01/12 03:27:58;;;;;;;41.10;18.45;;;;;;;;;;5095879;28;20286;-62
2024/01/12 03:30:23;;;;;;;39.00;17.83;;;;;;;;;;5097641;28;20031;-62
2024/01/12 03:32:48;;;;;;;39.28;16.92;;;;;;;;;;5095152;28;20012;-63
2024/01/12 03:35:13;;;;;;;38.90;16.03;;;;;;;;;;5096446;28;20020;-62
2024/01/12 03:37:39;;;;;;;38.50;16.95;;;;;;;;;;5096370;28;20781;-62
2024/01/12 03:40:04;;;;;;;42.13;17.90;;;;;;;;;;5093175;28;20016;-61
2024/01/12 03:42:29;;;;;;;40.88;16.52;;;;;;;;;;5094121;28;20638;-62
2024/01/12 03:44:54;;;;;;;40.97;18.10;;;;;;;;;;5092836;28;20059;-62
2024/01/12 03:47:20;;;;;;;41.43;17.83;;;;;;;;;;5093595;28;20027;-62
2024/01/12 03:49:45;;;;;;;41.75;17.45;;;;;;;;;;5094724;28;20366;-62
2024/01/12 03:52:11;;;;;;;41.50;18.83;;;;;;;;;;5095001;28;20020;-61
2024/01/12 03:54:36;;;;;;;40.92;17.63;;;;;;;;;;5097709;28;20666;-61
2024/01/12 03:57:02;;;;;;;41.83;17.13;;;;;;;;;;5095700;28;20091;-61
2024/01/12 03:59:27;;;;;;;39.90;17.38;;;;;;;;;;5096439;28;20050;-61
2024/01/12 04:01:53;;;;;;;38.13;17.98;;;;;;;;;;5094529;28;20012;-61
2024/01/12 04:04:18;;;;;;;39.23;18.00;;;;;;;;;;5096132;28;20106;-60
2024/01/12 04:06:43;;;;;;;42.47;18.10;;;;;;;;;;5096358;28;20345;-61
2024/01/12 04:09:12;;;;;;;43.17;17.43;;;;;;;;;;5097251;28;20296;-60
2024/01/12 04:11:38;;;;;;;37.22;17.95;;;;;;;;;;5094318;28;20281;-62
2024/01/12 04:14:03;;;;;;;43.88;17.92;;;;;;;;;;5093930;28;20024;-60
2024/01/12 04:16:29;;;;;;;40.70;18.10;;;;;;;;;;5093743;28;20081;-61
2024/01/12 04:18:54;;;;;;;40.88;17.73;;;;;;;;;;5094620;28;20266;-62
2024/01/12 04:21:19;;;;;;;36.47;16.38;;;;;;;;;;5094332;28;20134;-62
2024/01/12 04:23:44;;;;;;;39.00;17.33;;;;;;;;;;5095318;28;20088;-60
2024/01/12 04:26:09;;;;;;;41.27;17.43;;;;;;;;;;5097066;28;20372;-62
2024/01/12 04:28:35;;;;;;;39.63;18.57;;;;;;;;;;5098089;28;20392;-63
2024/01/12 04:31:03;;;;;;;38.03;15.77;;;;;;;;;;5092216;28;20266;-62
2024/01/12 04:33:31;;;;;;;38.42;16.92;;;;;;;;;;5094909;28;20615;-62
2024/01/12 04:35:57;;;;;;;39.90;17.10;;;;;;;;;;5091499;28;20533;-62
2024/01/12 04:38:23;;;;;;;40.63;17.75;;;;;;;;;;5095883;28;20027;-62
2024/01/12 04:40:48;;;;;;;40.67;17.90;;;;;;;;;;5098594;28;20020;-61
2024/01/12 04:43:13;;;;;;;40.47;16.63;;;;;;;;;;5099549;28;20047;-61
2024/01/12 04:45:38;;;;;;;39.97;17.97;;;;;;;;;;5095743;28;20286;-61
2024/01/12 04:48:03;;;;;;;40.30;16.67;;;;;;;;;;5099262;28;20392;-62
2024/01/12 04:50:28;;;;;;;37.53;16.33;;;;;;;;;;5098867;28;20273;-62
2024/01/12 04:52:54;;;;;;;38.77;16.20;;;;;;;;;;5100257;28;20110;-62
2024/01/12 04:55:19;;;;;;;39.45;16.58;;;;;;;;;;5100113;28;20330;-62
2024/01/12 04:57:45;;;;;;;38.42;17.30;;;;;;;;;;5099338;28;20132;-62
2024/01/12 05:00:10;;;;;;;40.80;18.00;;;;;;;;;;5100431;28;20015;-62
2024/01/12 05:02:35;;;;;;;39.05;16.35;;;;;;;;;;5099226;28;20751;-62
2024/01/12 05:05:00;;;;;;;41.53;15.93;;;;;;;;;;5100929;28;20032;-61
2024/01/12 05:07:26;;;;;;;38.37;16.67;;;;;;;;;;5099300;28;20027;-62
2024/01/12 05:09:51;;;;;;;37.80;16.53;;;;;;;;;;5098552;28;20269;-62
2024/01/12 05:12:16;;;;;;;39.77;17.20;;;;;;;;;;5099493;28;20270;-62
2024/01/12 05:14:41;;;;;;;38.83;17.25;;;;;;;;;;5100163;28;20371;-62
2024/01/12 05:17:07;;;;;;;39.60;16.77;;;;;;;;;;5099728;28;20028;-61
2024/01/12 05:19:32;;;;;;;40.63;17.52;;;;;;;;;;5098597;28;20118;-60
2024/01/12 05:21:57;;;;;;;40.40;17.60;;;;;;;;;;5097782;28;20057;-61
2024/01/12 05:24:23;;;;;;;38.92;16.65;;;;;;;;;;5099592;28;20022;-62
2024/01/12 05:26:48;;;;;;;42.03;17.67;;;;;;;;;;5096870;28;20198;-62
2024/01/12 05:29:14;;;;;;;41.70;18.27;;;;;;;;;;5097050;28;20301;-62
2024/01/12 05:31:40;;;;;;;39.45;16.73;;;;;;;;;;5096672;28;20024;-61
2024/01/12 05:34:06;;;;;;;37.03;16.35;;;;;;;;;;5098906;28;20047;-61
2024/01/12 05:36:31;;;;;;;36.40;15.17;;;;;;;;;;5098106;28;20054;-61
2024/01/12 05:38:56;;;;;;;38.17;16.30;;;;;;;;;;5101237;28;20411;-62
2024/01/12 05:41:21;;;;;;;38.43;15.57;;;;;;;;;;5096228;28;20360;-62
2024/01/12 05:43:46;;;;;;;35.20;15.20;;;;;;;;;;5100234;28;20639;-61
2024/01/12 05:46:11;;;;;;;37.10;16.42;;;;;;;;;;5097057;28;20376;-62
2024/01/12 05:48:37;;;;;;;36.53;16.03;;;;;;;;;;5099634;28;20024;-62
2024/01/12 05:51:02;;;;;;;37.88;15.70;;;;;;;;;;5096339;28;20448;-62
2024/01/12 05:53:27;;;;;;;39.55;16.67;;;;;;;;;;5098424;28;20028;-62
2024/01/12 05:55:52;;;;;;;36.20;15.33;;;;;;;;;;5098262;28;20576;-62
2024/01/12 05:58:18;;;;;;;38.42;15.95;;;;;;;;;;5097663;28;20459;-62
2024/01/12 06:00:43;;;;;;;36.72;15.63;;;;;;;;;;5097434;28;20020;-61
2024/01/12 06:03:08;;;;;;;35.77;14.50;;;;;;;;;;5097178;28;20054;-62
2024/01/12 06:05:35;;;;;;;34.57;14.10;;;;;;;;;;5096882;28;20743;-62
2024/01/12 06:08:00;;;;;;;34.53;13.10;;;;;;;;;;5095611;28;20354;-61
2024/01/12 06:10:25;;;;;;;35.08;14.63;;;;;;;;;;5097261;28;20016;-62
2024/01/12 06:12:52;;;;;;;34.57;14.30;;;;;;;;;;5097366;28;20019;-62
2024/01/12 06:15:17;;;;;;;34.60;14.57;;;;;;;;;;5096335;28;20276;-61
2024/01/12 06:17:42;;;;;;;34.57;14.87;;;;;;;;;;5097355;28;20031;-62
2024/01/12 06:20:08;;;;;;;37.20;13.50;;;;;;;;;;5097459;28;20757;-61
2024/01/12 06:22:33;;;;;;;35.20;13.80;;;;;;;;;;5099474;28;20285;-62
2024/01/12 06:24:58;;;;;;;32.13;12.77;;;;;;;;;;5095909;28;20663;-62
2024/01/12 06:27:23;;;;;;;38.90;13.53;;;;;;;;;;5099840;28;20375;-61
2024/01/12 06:29:49;;;;;;;34.47;13.30;;;;;;;;;;5094986;28;20719;-61
2024/01/12 06:32:14;;;;;;;35.65;13.07;;;;;;;;;;5099023;28;20254;-60
2024/01/12 06:34:39;;;;;;;31.87;13.00;;;;;;;;;;5095970;28;20825;-61
2024/01/12 06:37:04;;;;;;;32.92;12.73;;;;;;;;;;5097300;28;20272;-61
2024/01/12 06:39:30;;;;;;;33.65;13.18;;;;;;;;;;5096998;28;20119;-60
2024/01/12 06:41:56;;;;;;;34.03;12.40;;;;;;;;;;5096290;28;20028;-60
2024/01/12 06:44:21;;;;;;;32.00;12.10;;;;;;;;;;5097102;28;20270;-60
2024/01/12 06:46:46;;;;;;;32.78;11.88;;;;;;;;;;5096679;28;20029;-61
2024/01/12 06:49:11;;;;;;;33.47;12.60;;;;;;;;;;5096496;28;20042;-61
2024/01/12 06:51:37;;;;;;;34.03;11.75;;;;;;;;;;5096834;28;20316;-61
2024/01/12 06:54:02;;;;;;;30.75;11.57;;;;;;;;;;5095628;28;20492;-61
2024/01/12 06:56:27;;;;;;;33.13;12.23;;;;;;;;;;5096494;28;20027;-61
2024/01/12 06:58:52;;;;;;;32.53;11.23;;;;;;;;;;5098676;28;20022;-61
2024/01/12 07:01:18;;;;;;;33.93;11.27;;;;;;;;;;5097262;28;20289;-61
2024/01/12 07:03:43;;;;;;;33.40;11.85;;;;;;;;;;5096014;28;20266;-60
2024/01/12 07:06:09;;;;;;;30.37;12.40;;;;;;;;;;5097798;28;20019;-61
2024/01/12 07:08:34;;;;;;;29.48;10.80;;;;;;;;;;5096986;28;20285;-62
2024/01/12 07:11:03;;;;;;;30.30;11.27;;;;;;;;;;5097484;28;20070;-62
2024/01/12 07:13:28;;;;;;;32.35;10.70;;;;;;;;;;5096205;28;20274;-62
2024/01/12 07:15:53;;;;;;;29.50;11.17;;;;;;;;;;5100974;28;20027;-60
2024/01/12 07:18:19;;;;;;;30.25;11.77;;;;;;;;;;5099655;28;20776;-60
2024/01/12 07:20:44;;;;;;;33.33;12.47;;;;;;;;;;5096122;28;20356;-61
2024/01/12 07:23:09;;;;;;;32.73;12.87;;;;;;;;;;5096473;28;20254;-60
2024/01/12 07:25:36;;;;;;;32.30;13.10;;;;;;;;;;5095000;28;20269;-60
2024/01/12 07:28:03;;;;;;;30.63;11.82;;;;;;;;;;5106893;28;20293;-60
2024/01/12 07:30:28;;;;;;;30.05;12.65;;;;;;;;;;5096217;28;20023;-60
2024/01/12 07:32:53;;;;;;;34.80;12.82;;;;;;;;;;5106766;28;20012;-60
2024/01/12 07:35:18;;;;;;;31.85;11.43;;;;;;;;;;5092872;28;20503;-59
2024/01/12 07:37:44;;;;;;;31.50;12.10;;;;;;;;;;5100300;28;20008;-59
2024/01/12 07:40:10;;;;;;;33.00;12.77;;;;;;;;;;5098338;28;20438;-59
2024/01/12 07:42:35;;;;;;;33.67;13.52;;;;;;;;;;5096242;28;20015;-60
2024/01/12 07:45:00;;;;;;;30.77;14.02;;;;;;;;;;5099550;28;20052;-60
2024/01/12 07:47:25;;;;;;;34.17;14.47;;;;;;;;;;5101541;28;20012;-60
2024/01/12 07:49:51;;;;;;;30.08;12.77;;;;;;;;;;5095354;28;20309;-60
2024/01/12 07:52:16;;;;;;;34.00;13.93;;;;;;;;;;5102923;28;20026;-60
2024/01/12 07:54:42;;;;;;;36.63;14.52;;;;;;;;;;5098598;28;20270;-60
2024/01/12 07:57:07;;;;;;;35.38;14.57;;;;;;;;;;5098686;28;20272;-60
2024/01/12 07:59:33;;;;;;;39.67;15.67;;;;;;;;;;5095991;28;20073;-60
2024/01/12 08:01:58;;;;;;;34.57;13.07;;;;;;;;;;5102822;28;20257;-60
2024/01/12 08:04:24;;;;;;;31.05;12.57;;;;;;;;;;5088420;28;20783;-60
2024/01/12 08:06:49;;;;;;;30.20;12.35;;;;;;;;;;5094458;28;20478;-59
2024/01/12 08:09:14;;;;;;;36.58;13.55;;;;;;;;;;5094261;28;20038;-60
2024/01/12 08:11:39;;;;;;;34.38;12.77;;;;;;;;;;5094537;28;20026;-60
2024/01/12 08:14:05;;;;;;;31.77;13.02;;;;;;;;;;5093377;28;20426;-60
2024/01/12 08:16:31;;;;;;;33.47;12.65;;;;;;;;;;5089217;28;21407;-59
2024/01/12 08:18:56;;;;;;;32.67;13.40;;;;;;;;;;5091420;28;20483;-59
2024/01/12 08:21:21;;;;;;;31.92;12.70;;;;;;;;;;5094556;28;20024;-59
2024/01/12 08:23:46;;;;;;;32.58;11.43;;;;;;;;;;5093705;28;20024;-60
2024/01/12 08:26:13;;;;;;;33.37;13.63;;;;;;;;;;5092008;28;20016;-60
2024/01/12 08:28:38;;;;;;;32.22;12.88;;;;;;;;;;5097379;28;20846;-59
2024/01/12 08:31:04;;;;;;;30.70;12.00;;;;;;;;;;5093749;28;20111;-61
2024/01/12 08:33:29;;;;;;;30.05;11.50;;;;;;;;;;5098822;28;20254;-60
2024/01/12 08:35:54;;;;;;;31.33;11.80;;;;;;;;;;5096612;28;20026;-60
2024/01/12 08:38:19;;;;;;;30.83;11.50;;;;;;;;;;5101706;28;20347;-60
2024/01/12 08:40:44;;;;;;;31.40;12.43;;;;;;;;;;5103871;28;20289;-58
2024/01/12 08:43:12;;;;;;;34.57;12.73;;;;;;;;;;5096515;28;20027;-58
2024/01/12 08:45:37;;;;;;;31.73;11.90;;;;;;;;;;5099730;28;20381;-57
2024/01/12 08:48:02;;;;;;;31.25;11.90;;;;;;;;;;5094175;28;20118;-57
2024/01/12 08:50:30;;;;;;;30.35;12.25;;;;;;;;;;5096292;28;20042;-58
2024/01/12 08:52:56;;;;;;;29.90;11.98;;;;;;;;;;5088470;28;20069;-56
2024/01/12 08:55:21;;;;;;;31.75;12.20;;;;;;;;;;5088280;28;20028;-58
2024/01/12 08:57:47;;;;;;;28.83;11.90;;;;;;;;;;5077395;28;20758;-58
2024/01/12 09:00:12;;;;;;;31.10;12.18;;;;;;;;;;5078609;28;20592;-58
2024/01/12 09:02:38;;;;;;;29.83;12.07;;;;;;;;;;5085711;28;20100;-57
2024/01/12 09:05:03;;;;;;;37.67;14.93;;;;;;;;;;5072274;28;20032;-57
2024/01/12 09:07:28;;;;;;;37.92;16.48;;;;;;;;;;5085889;28;20131;-58
2024/01/12 09:09:53;;;;;;;35.95;14.63;;;;;;;;;;5077502;28;20723;-57
2024/01/12 09:12:19;;;;;;;35.17;13.15;;;;;;;;;;5068945;28;20017;-57
2024/01/12 09:14:44;;;;;;;32.78;13.65;;;;;;;;;;5068995;28;20021;-57
2024/01/12 09:17:10;;;;;;;30.80;13.03;;;;;;;;;;5069054;28;20735;-57
2024/01/12 09:19:35;;;;;;;31.02;13.07;;;;;;;;;;5072425;28;20274;-57
2024/01/12 09:22:03;;;;;;;33.35;12.60;;;;;;;;;;5077627;28;20024;-57
2024/01/12 09:24:28;;;;;;;31.70;12.30;;;;;;;;;;5079014;28;20051;-57
2024/01/12 09:26:53;;;;;;;30.70;13.95;;;;;;;;;;5081208;28;20070;-57
2024/01/12 09:29:18;;;;;;;28.67;11.90;;;;;;;;;;5092507;28;20759;-56
2024/01/12 09:31:43;;;;;;;30.90;12.23;;;;;;;;;;5092541;28;20388;-57
2024/01/12 09:34:09;;;;;;;33.15;12.48;;;;;;;;;;5092549;28;21126;-57
2024/01/12 09:36:34;;;;;;;30.00;12.45;;;;;;;;;;5092394;28;20069;-57
2024/01/12 09:38:59;;;;;;;27.53;10.97;;;;;;;;;;5093004;28;20028;-56
2024/01/12 09:41:31;;;;;;;30.80;11.63;;;;;;;;;;5091621;28;20315;-56
2024/01/12 09:43:58;;;;;;;31.67;11.75;;;;;;;;;;5092784;28;20024;-57
2024/01/12 09:46:26;;;;;;;30.88;12.13;;;;;;;;;;5093037;28;20147;-57
2024/01/12 09:48:52;;;;;;;26.58;11.00;;;;;;;;;;5092445;28;20027;-57
2024/01/12 09:51:18;;;;;;;28.77;11.43;;;;;;;;;;5092235;28;20017;-56
2024/01/12 09:53:43;;;;;;;31.33;12.10;;;;;;;;;;5092281;28;20396;-58
2024/01/12 09:56:08;;;;;;;31.10;11.82;;;;;;;;;;5092190;28;20039;-57
2024/01/12 09:58:36;;;;;;;30.40;12.65;;;;;;;;;;5092163;28;20024;-58
2024/01/12 10:01:02;;;;;;;34.05;12.73;;;;;;;;;;5092469;28;20028;-58
2024/01/12 10:03:27;;;;;;;32.70;12.73;;;;;;;;;;5092225;28;20023;-57
2024/01/12 10:05:52;;;;;;;30.95;11.43;;;;;;;;;;5091056;28;20029;-58
2024/01/12 10:08:18;;;;;;;29.13;12.37;;;;;;;;;;5090797;28;20042;-57
2024/01/12 10:10:43;;;;;;;32.00;12.43;;;;;;;;;;5091435;28;20273;-57
2024/01/12 10:13:08;;;;;;;32.17;12.30;;;;;;;;;;5092763;28;20369;-56
2024/01/12 10:15:42;;;;;;;31.70;12.10;;;;;;;;;;5092212;28;20273;-57
2024/01/12 10:18:07;;;;;;;29.25;12.20;;;;;;;;;;5091989;28;20048;-55
2024/01/12 10:20:37;;;;;;;31.33;13.53;;;;;;;;;;5090277;28;20044;-57
2024/01/12 10:23:03;;;;;;;28.45;12.73;;;;;;;;;;5087295;28;20653;-56
2024/01/12 10:25:28;;;;;;;34.60;13.68;;;;;;;;;;5086729;28;20094;-58
2024/01/12 10:27:55;;;;;;;33.60;13.23;;;;;;;;;;5071359;28;20035;-57
2024/01/12 10:30:20;;;;;;;34.80;14.10;;;;;;;;;;5071448;28;20028;-57
2024/01/12 10:32:49;;;;;;;33.17;13.68;;;;;;;;;;5077445;28;20376;-57
2024/01/12 10:35:15;;;;;;;32.47;12.77;;;;;;;;;;5082569;28;20028;-56
2024/01/12 10:37:40;;;;;;;32.90;12.63;;;;;;;;;;5070126;28;20016;-56
2024/01/12 10:40:06;;;;;;;31.92;13.00;;;;;;;;;;5077909;28;20116;-57
2024/01/12 10:42:32;;;;;;;30.55;12.77;;;;;;;;;;5090576;28;20043;-57
2024/01/12 10:44:59;;;;;;;30.90;12.45;;;;;;;;;;5091031;28;20044;-57
2024/01/12 10:47:26;;;;;;;31.77;12.23;;;;;;;;;;5084831;28;20028;-57
2024/01/12 10:50:05;;;;;;;28.90;10.88;;;;;;;;;;5083426;28;20783;-57
2024/01/12 10:52:46;;;;;;;25.70;10.18;;;;;;;;;;5090069;28;20110;-57
2024/01/12 10:55:15;;;;;;;32.00;10.35;;;;;;;;;;5082022;28;20027;-57
2024/01/12 10:57:41;;;;;;;27.95;10.65;;;;;;;;;;5090951;28;20016;-58
2024/01/12 11:00:08;;;;;;;29.63;11.00;;;;;;;;;;5090934;28;20016;-57
2024/01/12 11:02:34;;;;;;;27.58;10.90;;;;;;;;;;5090890;28;20051;-57
2024/01/12 11:05:00;;;;;;;27.92;10.07;;;;;;;;;;5087524;28;20056;-57
2024/01/12 11:07:25;;;;;;;31.70;10.75;;;;;;;;;;5077946;28;20375;-58
2024/01/12 11:09:53;;;;;;;28.65;9.75;;;;;;;;;;5089555;28;20390;-57
2024/01/12 11:12:24;;;;;;;28.98;9.52;;;;;;;;;;5081831;28;20042;-57
2024/01/12 11:14:49;;;;;;;27.20;10.40;;;;;;;;;;5070893;28;20075;-57
2024/01/12 11:17:14;;;;;;;28.60;11.07;;;;;;;;;;5077552;28;20063;-57
2024/01/12 11:19:40;;;;;;;30.67;10.77;;;;;;;;;;5086332;28;20024;-57
2024/01/12 11:22:05;;;;;;;25.58;10.13;;;;;;;;;;5083310;28;20315;-57
2024/01/12 11:24:31;;;;;;;28.40;10.27;;;;;;;;;;5071065;28;20024;-58
2024/01/12 11:26:56;;;;;;;28.52;9.98;;;;;;;;;;5073991;28;20046;-59
2024/01/12 11:29:27;;;;;;;27.87;10.43;;;;;;;;;;5077117;28;20445;-58
2024/01/12 11:31:54;;;;;;;27.33;10.73;;;;;;;;;;5074312;28;20282;-56
2024/01/12 11:34:19;;;;;;;31.15;10.90;;;;;;;;;;5082007;28;20020;-57
2024/01/12 11:36:44;;;;;;;28.83;11.10;;;;;;;;;;5089399;28;20016;-57
2024/01/12 11:39:12;;;;;;;28.83;9.77;;;;;;;;;;5085109;28;20464;-56
2024/01/12 11:41:42;;;;;;;28.55;11.05;;;;;;;;;;5071332;28;20091;-57
2024/01/12 11:44:08;;;;;;;29.77;11.85;;;;;;;;;;5077686;28;20023;-57
2024/01/12 11:46:34;;;;;;;27.98;10.98;;;;;;;;;;5078523;28;20064;-57
2024/01/12 11:49:02;;;;;;;26.98;9.90;;;;;;;;;;5076125;28;20086;-57
2024/01/12 11:51:27;;;;;;;28.42;10.48;;;;;;;;;;5080102;28;20012;-58
2024/01/12 11:53:53;;;;;;;31.93;12.67;;;;;;;;;;5073706;28;20029;-57
2024/01/12 11:56:20;;;;;;;35.03;15.23;;;;;;;;;;5078999;28;20267;-57
2024/01/12 11:58:45;;;;;;;30.55;12.38;;;;;;;;;;5069956;28;20500;-57
2024/01/12 12:01:10;;;;;;;28.53;10.47;;;;;;;;;;5070393;28;20066;-57
2024/01/12 12:03:35;;;;;;;30.90;12.10;;;;;;;;;;5070225;28;20300;-57
2024/01/12 12:06:00;;;;;;;27.00;11.00;;;;;;;;;;5088184;28;20061;-56
2024/01/12 12:08:27;;;;;;;29.98;12.25;;;;;;;;;;5094924;28;20325;-57
2024/01/12 12:10:53;;;;;;;29.13;11.02;;;;;;;;;;5096076;28;20020;-56
2024/01/12 12:13:19;;;;;;;29.83;12.00;;;;;;;;;;5094178;28;20528;-56
2024/01/12 12:15:45;;;;;;;28.60;12.93;;;;;;;;;;5096971;28;20054;-57
2024/01/12 12:18:10;;;;;;;33.53;12.18;;;;;;;;;;5094817;28;20042;-57
2024/01/12 12:20:35;;;;;;;33.75;11.57;;;;;;;;;;5093129;28;20410;-57
2024/01/12 12:23:01;;;;;;;28.80;11.82;;;;;;;;;;5094565;28;20016;-57
2024/01/12 12:25:26;;;;;;;28.98;11.23;;;;;;;;;;5090219;28;20596;-56
2024/01/12 12:27:51;;;;;;;30.65;10.55;;;;;;;;;;5095019;28;20097;-57
2024/01/12 12:30:16;;;;;;;30.05;11.82;;;;;;;;;;5093689;28;20030;-57
2024/01/12 12:32:42;;;;;;;25.43;10.17;;;;;;;;;;5093499;28;20097;-57
2024/01/12 12:35:17;;;;;;;27.63;11.35;;;;;;;;;;5094472;28;20266;-56
2024/01/12 12:37:43;;;;;;;30.20;10.80;;;;;;;;;;5096414;28;20478;-56
2024/01/12 12:40:09;;;;;;;27.67;10.63;;;;;;;;;;5091637;28;20016;-58
2024/01/12 12:42:35;;;;;;;28.83;11.05;;;;;;;;;;5091060;28;20090;-57
2024/01/12 12:45:00;;;;;;;31.02;10.55;;;;;;;;;;5092331;28;20068;-58
2024/01/12 12:47:26;;;;;;;27.63;10.15;;;;;;;;;;5091621;28;20153;-58
2024/01/12 12:49:51;;;;;;;27.92;10.32;;;;;;;;;;5093777;28;20129;-56
2024/01/12 12:52:16;;;;;;;30.27;10.43;;;;;;;;;;5092847;28;20529;-57
2024/01/12 12:54:41;;;;;;;31.08;11.15;;;;;;;;;;5093125;28;20346;-57
2024/01/12 12:57:07;;;;;;;33.17;11.63;;;;;;;;;;5093214;28;20410;-57
2024/01/12 12:59:37;;;;;;;29.55;10.13;;;;;;;;;;5096232;28;20298;-56
2024/01/12 13:02:03;;;;;;;29.95;9.75;;;;;;;;;;5099103;28;20284;-57
2024/01/12 13:04:28;;;;;;;29.27;10.80;;;;;;;;;;5098907;28;20036;-57
2024/01/12 13:06:53;;;;;;;28.02;10.70;;;;;;;;;;5098691;28;20020;-58
2024/01/12 13:09:18;;;;;;;30.10;10.10;;;;;;;;;;5098218;28;20679;-57
2024/01/12 13:11:44;;;;;;;28.35;10.50;;;;;;;;;;5099342;28;20270;-58
2024/01/12 13:14:09;;;;;;;30.13;10.65;;;;;;;;;;5096754;28;20024;-57
2024/01/12 13:16:38;;;;;;;27.80;10.80;;;;;;;;;;5098396;28;20023;-57
2024/01/12 13:19:03;;;;;;;27.98;10.07;;;;;;;;;;5098102;28;20023;-58
2024/01/12 13:21:29;;;;;;;28.58;9.60;;;;;;;;;;5095203;28;20039;-58
2024/01/12 13:23:54;;;;;;;27.85;10.02;;;;;;;;;;5097810;28;20413;-57
2024/01/12 13:26:22;;;;;;;30.20;10.80;;;;;;;;;;5097190;28;20099;-57
2024/01/12 13:28:47;;;;;;;27.38;10.38;;;;;;;;;;5096931;28;20381;-58
2024/01/12 13:31:12;;;;;;;27.98;9.82;;;;;;;;;;5096004;28;20641;-57
2024/01/12 13:33:38;;;;;;;28.30;9.80;;;;;;;;;;5096684;28;20476;-57
2024/01/12 13:36:03;;;;;;;29.67;9.50;;;;;;;;;;5097495;28;20404;-58
2024/01/12 13:38:28;;;;;;;31.05;10.07;;;;;;;;;;5097697;27;20024;-57
2024/01/12 13:40:56;;;;;;;29.57;10.10;;;;;;;;;;5098691;28;20024;-57
2024/01/12 13:43:21;;;;;;;25.10;9.00;;;;;;;;;;5100829;28;20293;-57
2024/01/12 13:45:46;;;;;;;26.53;9.50;;;;;;;;;;5099139;28;20075;-57
2024/01/12 13:48:12;;;;;;;26.33;10.07;;;;;;;;;;5100632;28;20371;-58
2024/01/12 13:50:37;;;;;;;27.30;9.60;;;;;;;;;;5096671;28;20039;-57
2024/01/12 13:53:03;;;;;;;27.47;10.27;;;;;;;;;;5097560;28;20451;-57
2024/01/12 13:55:28;;;;;;;27.20;10.10;;;;;;;;;;5094856;28;20270;-58
2024/01/12 13:57:53;;;;;;;30.80;12.10;;;;;;;;;;5099244;28;20119;-58
2024/01/12 14:00:19;;;;;;;32.80;11.93;;;;;;;;;;5095374;28;20047;-57
2024/01/12 14:02:44;;;;;;;28.27;9.70;;;;;;;;;;5096762;28;20289;-56
2024/01/12 14:05:10;;;;;;;27.85;9.52;;;;;;;;;;5097134;28;20110;-57
2024/01/12 14:07:36;;;;;;;26.55;9.13;;;;;;;;;;5097888;28;20466;-58
2024/01/12 14:10:01;;;;;;;30.90;12.55;;;;;;;;;;5094222;28;20023;-55